createdAt,value
2019-03-13T00:02:25.251Z,5.36
2019-03-13T00:06:29.636Z,5.40
2019-03-13T00:10:33.901Z,5.41
2019-03-13T00:14:38.090Z,5.43
2019-03-13T00:18:42.305Z,5.48
2019-03-13T00:22:46.529Z,5.55
2019-03-13T00:26:50.732Z,5.61
2019-03-13T00:30:55.024Z,5.66
2019-03-13T00:34:59.299Z,5.69
2019-03-13T00:39:05.222Z,5.72
2019-03-13T00:43:09.423Z,5.77
2019-03-13T00:47:13.884Z,5.77
2019-03-13T00:51:18.110Z,5.75
2019-03-13T00:55:22.918Z,5.75
2019-03-13T00:59:27.158Z,5.75
2019-03-13T01:03:42.386Z,5.75
2019-03-13T01:07:47.361Z,5.72
2019-03-13T01:11:52.907Z,5.72
2019-03-13T01:15:57.441Z,5.70
2019-03-13T01:20:01.573Z,5.67
2019-03-13T01:24:06.281Z,5.68
2019-03-13T01:28:10.745Z,5.62
2019-03-13T01:32:32.632Z,5.60
2019-03-13T01:36:36.828Z,5.59
2019-03-13T01:40:41.294Z,5.57
2019-03-13T01:44:45.508Z,5.55
2019-03-13T01:48:49.676Z,5.53
2019-03-13T01:52:53.876Z,5.54
2019-03-13T01:56:58.054Z,5.54
2019-03-13T02:01:02.352Z,5.55
2019-03-13T02:05:07.384Z,5.54
2019-03-13T02:09:11.589Z,5.53
2019-03-13T02:13:15.817Z,5.56
2019-03-13T02:17:19.980Z,5.55
2019-03-13T02:21:24.203Z,5.59
2019-03-13T02:25:28.372Z,5.59
2019-03-13T02:29:32.594Z,5.57
2019-03-13T02:33:36.816Z,5.54
2019-03-13T02:37:41.363Z,5.45
2019-03-13T02:41:45.567Z,5.43
2019-03-13T02:45:50.002Z,5.35
2019-03-13T02:49:54.230Z,5.26
2019-03-13T02:53:58.447Z,5.23
2019-03-13T02:58:02.643Z,5.19
2019-03-13T03:02:31.758Z,5.10
2019-03-13T03:06:35.963Z,5.01
2019-03-13T03:10:40.160Z,4.94
2019-03-13T03:15:11.179Z,4.88
2019-03-13T03:19:15.396Z,4.82
2019-03-13T03:23:19.918Z,4.86
2019-03-13T03:27:24.154Z,4.99
2019-03-13T03:31:28.385Z,5.05
2019-03-13T03:35:32.618Z,5.05
2019-03-13T03:39:36.825Z,5.09
2019-03-13T03:43:41.303Z,5.11
2019-03-13T03:47:45.612Z,5.11
2019-03-13T03:51:50.355Z,5.07
2019-03-13T03:55:54.657Z,5.10
2019-03-13T03:59:58.901Z,5.10
2019-03-13T04:04:03.063Z,5.06
2019-03-13T04:08:07.256Z,5.08
2019-03-13T04:12:11.455Z,5.04
2019-03-13T04:16:15.661Z,5.06
2019-03-13T04:20:19.874Z,5.07
2019-03-13T04:24:24.079Z,5.04
2019-03-13T04:28:28.385Z,5.02
2019-03-13T04:32:32.577Z,5.06
2019-03-13T04:36:36.811Z,5.13
2019-03-13T04:40:41.004Z,5.15
2019-03-13T04:44:45.191Z,5.19
2019-03-13T04:48:49.388Z,5.19
2019-03-13T04:52:53.644Z,5.16
2019-03-13T04:56:57.803Z,5.15
2019-03-13T05:01:02.112Z,5.14
2019-03-13T05:05:06.826Z,5.21
2019-03-13T05:09:13.450Z,5.26
2019-03-13T05:13:17.731Z,5.26
2019-03-13T05:17:22.658Z,5.26
2019-03-13T05:21:27.169Z,5.25
2019-03-13T05:25:31.489Z,5.22
2019-03-13T05:29:37.680Z,5.15
2019-03-13T05:33:47.059Z,5.15
2019-03-13T05:37:51.797Z,5.18
2019-03-13T05:41:55.960Z,5.21
2019-03-13T05:46:00.155Z,5.23
2019-03-13T05:50:06.223Z,5.24
2019-03-13T05:54:11.259Z,5.30
2019-03-13T05:58:16.056Z,5.30
2019-03-13T06:02:20.283Z,5.28
2019-03-13T06:06:24.600Z,5.24
2019-03-13T06:10:33.154Z,5.22
2019-03-13T06:14:38.178Z,5.16
2019-03-13T06:18:43.741Z,5.20
2019-03-13T06:22:47.939Z,5.30
2019-03-13T06:26:52.791Z,5.40
2019-03-13T06:30:56.996Z,5.49
2019-03-13T06:35:11.231Z,5.58
2019-03-13T06:39:15.502Z,5.63
2019-03-13T06:43:21.909Z,5.68
2019-03-13T06:47:27.877Z,5.72
2019-03-13T06:51:32.079Z,5.75
2019-03-13T06:55:42.600Z,5.75
2019-03-13T07:00:06.634Z,5.76
2019-03-13T07:04:42.618Z,5.78
2019-03-13T07:09:13.355Z,5.79
2019-03-13T07:13:36.524Z,5.72
2019-03-13T07:17:50.498Z,5.69
2019-03-13T07:22:06.616Z,5.65
2019-03-13T07:26:41.290Z,5.63
2019-03-13T07:31:24.433Z,5.62
2019-03-13T07:35:35.464Z,5.65
2019-03-13T07:39:58.868Z,5.68
2019-03-13T07:44:23.684Z,5.75
2019-03-13T07:48:56.594Z,5.77
2019-03-13T07:53:09.719Z,5.79
2019-03-13T07:57:25.515Z,5.83
2019-03-13T08:02:03.884Z,5.95
2019-03-13T08:06:37.594Z,6.06
2019-03-13T08:11:12.782Z,6.16
2019-03-13T08:15:42.766Z,6.20
2019-03-13T08:20:06.858Z,6.32
2019-03-13T08:24:26.959Z,6.47
2019-03-13T08:28:50.387Z,6.72
2019-03-13T08:33:15.849Z,7.06
2019-03-13T08:37:41.942Z,7.46
2019-03-13T08:41:57.390Z,7.71
2019-03-13T08:46:19.646Z,7.95
2019-03-13T08:50:54.945Z,8.15
2019-03-13T08:55:08.092Z,8.30
2019-03-13T08:59:23.620Z,8.50
2019-03-13T09:03:56.216Z,8.66
2019-03-13T09:08:19.381Z,8.78
2019-03-13T09:12:41.430Z,8.93
2019-03-13T09:17:17.045Z,9.00
2019-03-13T09:21:27.177Z,9.09
2019-03-13T09:25:53.475Z,9.20
2019-03-13T09:30:15.452Z,9.31
2019-03-13T09:34:37.615Z,9.49
2019-03-13T09:39:12.985Z,9.59
2019-03-13T09:43:27.617Z,9.66
2019-03-13T09:47:44.023Z,9.71
2019-03-13T09:51:57.097Z,9.75
2019-03-13T09:56:32.675Z,9.76
2019-03-13T10:00:46.362Z,9.79
2019-03-13T10:05:12.488Z,9.80
2019-03-13T10:09:48.044Z,9.84
2019-03-13T10:14:17.369Z,9.86
2019-03-13T10:18:36.951Z,9.88
2019-03-13T10:22:53.610Z,9.91
2019-03-13T10:27:16.800Z,9.96
2019-03-13T10:31:42.817Z,10.03
2019-03-13T10:36:09.730Z,10.06
2019-03-13T10:40:31.756Z,10.13
2019-03-13T10:44:44.509Z,10.17
2019-03-13T10:49:13.784Z,10.23
2019-03-13T10:53:28.078Z,10.24
2019-03-13T10:57:50.357Z,10.26
2019-03-13T11:02:19.927Z,10.33
2019-03-13T11:06:55.599Z,10.32
2019-03-13T11:11:07.707Z,10.38
2019-03-13T11:15:18.831Z,10.41
2019-03-13T11:19:42.004Z,10.46
2019-03-13T11:24:04.109Z,10.53
2019-03-13T11:28:33.338Z,10.62
2019-03-13T11:32:54.646Z,10.67
2019-03-13T11:37:17.828Z,10.79
2019-03-13T11:41:50.147Z,10.86
2019-03-13T11:46:11.991Z,10.89
2019-03-13T11:50:33.990Z,11.01
2019-03-13T11:55:00.024Z,11.12
2019-03-13T11:59:13.613Z,11.21
2019-03-13T12:03:36.781Z,11.33
2019-03-13T12:07:53.761Z,11.47
2019-03-13T12:12:30.624Z,11.47
2019-03-13T12:17:07.130Z,11.50
2019-03-13T12:21:26.878Z,11.55
2019-03-13T12:25:38.514Z,11.58
2019-03-13T12:30:00.484Z,11.61
2019-03-13T12:34:26.737Z,11.69
2019-03-13T12:38:39.892Z,11.70
2019-03-13T12:43:04.043Z,11.67
2019-03-13T12:47:28.815Z,11.74
2019-03-13T12:51:42.414Z,11.74
2019-03-13T12:56:08.816Z,11.82
2019-03-13T13:00:41.496Z,11.79
2019-03-13T13:05:03.703Z,11.84
2019-03-13T13:09:18.323Z,11.87
2019-03-13T13:13:45.967Z,11.88
2019-03-13T13:18:10.433Z,11.91
2019-03-13T13:22:14.765Z,11.91
2019-03-13T13:26:19.099Z,11.95
2019-03-13T13:30:23.392Z,11.91
2019-03-13T13:34:27.631Z,11.94
2019-03-13T13:38:33.984Z,11.91
2019-03-13T13:42:41.282Z,11.88
2019-03-13T13:46:47.558Z,11.87
2019-03-13T13:50:55.317Z,11.87
2019-03-13T13:54:59.562Z,11.90
2019-03-13T13:59:06.282Z,11.87
2019-03-13T14:03:12.690Z,11.91
2019-03-13T14:07:19.346Z,11.92
2019-03-13T14:11:26.092Z,11.91
2019-03-13T14:15:31.343Z,11.91
2019-03-13T14:19:35.548Z,11.91
2019-03-13T14:23:39.757Z,11.88
2019-03-13T14:27:46.654Z,11.88
2019-03-13T14:31:50.854Z,11.86
2019-03-13T14:35:55.260Z,11.81
2019-03-13T14:39:59.851Z,11.81
2019-03-13T14:44:04.063Z,11.75
2019-03-13T14:48:08.368Z,11.82
2019-03-13T14:52:17.308Z,11.82
2019-03-13T14:56:23.915Z,11.75
2019-03-13T15:00:29.086Z,11.69
2019-03-13T15:04:33.864Z,11.62
2019-03-13T15:08:38.273Z,11.57
2019-03-13T15:13:36.805Z,11.50
2019-03-13T15:17:41.015Z,11.38
2019-03-13T15:21:48.442Z,11.31
2019-03-13T15:25:52.723Z,11.21
2019-03-13T15:29:56.886Z,11.08
2019-03-13T15:34:01.056Z,11.02
2019-03-13T15:38:05.237Z,10.96
2019-03-13T15:42:09.426Z,10.91
2019-03-13T15:46:13.607Z,10.84
2019-03-13T15:50:17.962Z,10.78
2019-03-13T15:54:23.052Z,10.77
2019-03-13T15:58:27.328Z,10.80
2019-03-13T16:02:34.655Z,10.78
2019-03-13T16:06:38.844Z,10.81
2019-03-13T16:10:43.024Z,10.80
2019-03-13T16:14:47.168Z,10.79
2019-03-13T16:18:51.416Z,10.80
2019-03-13T16:22:57.801Z,10.82
2019-03-13T16:27:01.927Z,10.84
2019-03-13T16:31:06.883Z,10.86
2019-03-13T16:35:11.275Z,10.89
2019-03-13T16:39:15.414Z,10.89
2019-03-13T16:43:19.677Z,10.84
2019-03-13T16:47:23.802Z,10.77
2019-03-13T16:51:28.587Z,10.69
2019-03-13T16:55:44.071Z,10.61
2019-03-13T16:59:59.956Z,10.51
2019-03-13T17:03:54.108Z,10.41
2019-03-13T17:07:58.286Z,10.35
2019-03-13T17:12:02.450Z,10.31
2019-03-13T17:16:06.644Z,10.30
2019-03-13T17:20:13.648Z,10.27
2019-03-13T17:24:18.050Z,10.22
2019-03-13T17:28:24.148Z,10.18
2019-03-13T17:32:28.319Z,10.14
2019-03-13T17:36:32.506Z,10.08
2019-03-13T17:40:36.677Z,10.07
2019-03-13T17:44:52.985Z,10.03
2019-03-13T17:48:57.154Z,10.01
2019-03-13T17:53:01.409Z,9.96
2019-03-13T17:57:05.581Z,9.86
2019-03-13T18:01:11.645Z,9.74
2019-03-13T18:05:16.640Z,9.64
2019-03-13T18:09:33.887Z,9.57
2019-03-13T18:13:38.047Z,9.46
2019-03-13T18:17:42.224Z,9.37
2019-03-13T18:21:46.418Z,9.32
2019-03-13T18:25:50.552Z,9.28
2019-03-13T18:29:54.767Z,9.22
2019-03-13T18:33:58.945Z,9.18
2019-03-13T18:38:03.120Z,9.11
2019-03-13T18:42:07.272Z,9.02
2019-03-13T18:46:11.479Z,8.97
2019-03-13T18:50:15.876Z,8.92
2019-03-13T18:54:19.998Z,8.85
2019-03-13T18:58:24.217Z,8.83
2019-03-13T19:02:28.390Z,8.80
2019-03-13T19:06:32.623Z,8.81
2019-03-13T19:10:36.995Z,8.81
2019-03-13T19:14:41.251Z,8.80
2019-03-13T19:18:45.418Z,8.69
2019-03-13T19:22:49.592Z,8.62
2019-03-13T19:26:53.745Z,8.62
2019-03-13T19:30:57.931Z,8.58
2019-03-13T19:35:02.160Z,8.50
2019-03-13T19:39:07.094Z,8.44
2019-03-13T19:43:11.241Z,8.40
2019-03-13T19:47:15.489Z,8.37
2019-03-13T19:51:19.648Z,8.34
2019-03-13T19:55:23.819Z,8.33
2019-03-13T19:59:28.104Z,8.29
2019-03-13T20:03:33.353Z,8.23
2019-03-13T20:07:37.644Z,8.22
2019-03-13T20:11:41.857Z,8.18
2019-03-13T20:15:45.927Z,8.12
2019-03-13T20:19:52.320Z,8.08
2019-03-13T20:23:55.950Z,8.02
2019-03-13T20:28:00.139Z,7.96
2019-03-13T20:32:06.378Z,7.86
2019-03-13T20:36:10.817Z,7.79
2019-03-13T20:40:17.307Z,7.79
2019-03-13T20:44:21.652Z,7.76
2019-03-13T20:48:25.870Z,7.70
2019-03-13T20:52:32.095Z,7.68
2019-03-13T20:56:36.305Z,7.66
2019-03-13T21:00:40.499Z,7.58
2019-03-13T21:04:44.814Z,7.52
2019-03-13T21:08:48.980Z,7.51
2019-03-13T21:12:54.228Z,7.48
2019-03-13T21:16:58.426Z,7.47
2019-03-13T21:21:02.667Z,7.45
2019-03-13T21:25:09.628Z,7.46
2019-03-13T21:29:15.900Z,7.43
2019-03-13T21:33:20.192Z,7.43
2019-03-13T21:37:24.554Z,7.41
2019-03-13T21:41:28.838Z,7.40
2019-03-13T21:45:41.242Z,7.39
2019-03-13T21:49:39.301Z,7.37
2019-03-13T21:53:44.465Z,7.31
2019-03-13T21:57:51.723Z,7.28
2019-03-13T22:01:54.736Z,7.25
2019-03-13T22:05:58.850Z,7.16
2019-03-13T22:10:03.024Z,7.08
2019-03-13T22:14:07.168Z,6.99
2019-03-13T22:18:11.404Z,6.93
2019-03-13T22:22:15.531Z,6.93
2019-03-13T22:26:19.670Z,6.95
2019-03-13T22:30:23.858Z,6.88
2019-03-13T22:34:28.022Z,6.87
2019-03-13T22:38:32.178Z,6.84
2019-03-13T22:42:38.856Z,6.74
2019-03-13T22:46:43.058Z,6.73
2019-03-13T22:50:47.235Z,6.64
2019-03-13T22:54:51.351Z,6.60
2019-03-13T22:58:55.526Z,6.62
2019-03-13T23:03:00.871Z,6.59
2019-03-13T23:07:05.109Z,6.58
2019-03-13T23:11:09.584Z,6.54
2019-03-13T23:15:13.797Z,6.52
2019-03-13T23:19:18.178Z,6.44
2019-03-13T23:23:22.408Z,6.34
2019-03-13T23:27:26.546Z,6.27
2019-03-13T23:31:30.720Z,6.15
2019-03-13T23:35:34.921Z,6.07
2019-03-13T23:39:39.095Z,5.99
2019-03-13T23:43:43.577Z,5.94
2019-03-13T23:47:47.709Z,5.95
2019-03-13T23:51:51.939Z,5.97
2019-03-13T23:55:56.097Z,6.01
